createdAt,value
2022-11-20T00:00:22.900Z,43.95
2022-11-20T00:02:50.302Z,43.78
2022-11-20T00:05:18.091Z,42.55
2022-11-20T00:07:45.914Z,39.72
2022-11-20T00:10:13.319Z,42.08
2022-11-20T00:12:40.841Z,41.78
2022-11-20T00:15:08.537Z,43.92
2022-11-20T00:17:35.986Z,40.83
2022-11-20T00:20:03.420Z,40.55
2022-11-20T00:22:30.801Z,42.80
2022-11-20T00:24:58.941Z,40.60
2022-11-20T00:27:26.347Z,39.90
2022-11-20T00:29:53.702Z,41.00
2022-11-20T00:32:21.137Z,37.95
2022-11-20T00:34:48.498Z,40.90
2022-11-20T00:37:15.955Z,41.97
2022-11-20T00:39:43.311Z,33.58
2022-11-20T00:42:10.761Z,34.65
2022-11-20T00:44:38.178Z,32.67
2022-11-20T00:47:05.698Z,35.50
2022-11-20T00:49:33.070Z,31.70
2022-11-20T00:52:00.656Z,31.67
2022-11-20T00:54:28.032Z,30.90
2022-11-20T00:56:55.465Z,33.17
2022-11-20T00:59:23.047Z,32.15
2022-11-20T01:01:50.795Z,30.40
2022-11-20T01:04:18.167Z,31.70
2022-11-20T01:06:45.625Z,31.17
2022-11-20T01:09:14.261Z,29.95
2022-11-20T01:11:43.294Z,31.13
2022-11-20T01:14:17.885Z,30.60
2022-11-20T01:16:46.866Z,32.85
2022-11-20T01:19:18.065Z,33.72
2022-11-20T01:21:46.848Z,35.42
2022-11-20T01:24:15.375Z,31.33
2022-11-20T01:26:43.704Z,31.40
2022-11-20T01:29:21.678Z,32.92
2022-11-20T01:31:49.374Z,31.45
2022-11-20T01:34:18.270Z,33.08
2022-11-20T01:36:46.136Z,30.75
2022-11-20T01:39:21.475Z,31.98
2022-11-20T01:42:10.140Z,38.15
2022-11-20T01:44:58.293Z,36.70
2022-11-20T01:47:29.112Z,38.40
2022-11-20T01:50:03.002Z,36.97
2022-11-20T01:52:40.062Z,36.47
2022-11-20T01:55:10.155Z,37.45
2022-11-20T01:57:38.095Z,37.33
2022-11-20T02:00:08.080Z,36.67
2022-11-20T02:02:42.628Z,37.25
2022-11-20T02:05:36.346Z,44.03
2022-11-20T02:08:04.750Z,38.65
2022-11-20T02:10:33.026Z,38.45
2022-11-20T02:13:19.170Z,43.22
2022-11-20T02:15:47.322Z,42.60
2022-11-20T02:18:17.138Z,46.75
2022-11-20T02:20:45.795Z,48.13
2022-11-20T02:23:39.529Z,46.08
2022-11-20T02:26:08.707Z,47.15
2022-11-20T02:28:36.521Z,61.03
2022-11-20T02:31:04.814Z,51.97
2022-11-20T02:33:32.307Z,50.33
2022-11-20T02:35:59.643Z,47.28
2022-11-20T02:38:27.109Z,47.28
2022-11-20T02:40:55.884Z,50.10
2022-11-20T02:43:24.045Z,52.92
2022-11-20T02:45:51.628Z,48.47
2022-11-20T02:48:19.081Z,55.00
2022-11-20T02:50:46.745Z,54.85
2022-11-20T02:53:14.097Z,52.38
2022-11-20T02:55:41.650Z,53.70
2022-11-20T02:58:09.175Z,53.60
2022-11-20T03:00:36.671Z,52.97
2022-11-20T03:03:04.134Z,58.70
2022-11-20T03:05:31.634Z,54.65
2022-11-20T03:07:59.129Z,52.92
2022-11-20T03:10:26.593Z,52.90
2022-11-20T03:12:57.226Z,56.63
2022-11-20T03:15:26.101Z,57.28
2022-11-20T03:17:56.724Z,52.75
2022-11-20T03:20:24.701Z,55.83
2022-11-20T03:22:52.234Z,53.03
2022-11-20T03:25:19.704Z,58.25
2022-11-20T03:27:47.107Z,56.58
2022-11-20T03:30:14.967Z,59.85
2022-11-20T03:32:42.430Z,53.50
2022-11-20T03:35:10.083Z,54.20
2022-11-20T03:37:37.502Z,58.33
2022-11-20T03:40:05.307Z,60.92
2022-11-20T03:42:48.325Z,64.00
2022-11-20T03:45:16.984Z,53.05
2022-11-20T03:47:44.669Z,57.22
2022-11-20T03:50:14.037Z,58.97
2022-11-20T03:52:41.669Z,67.38
2022-11-20T03:55:09.598Z,54.67
2022-11-20T03:57:37.022Z,63.90
2022-11-20T04:00:05.124Z,60.90
2022-11-20T04:02:32.488Z,57.30
2022-11-20T04:05:00.045Z,63.42
2022-11-20T04:07:27.538Z,64.72
2022-11-20T04:09:56.827Z,60.40
2022-11-20T04:12:24.235Z,61.22
2022-11-20T04:14:51.690Z,59.33
2022-11-20T04:17:19.053Z,60.40
2022-11-20T04:19:46.461Z,68.75
2022-11-20T04:22:14.230Z,57.60
2022-11-20T04:24:41.724Z,64.22
2022-11-20T04:27:09.071Z,59.30
2022-11-20T04:29:36.578Z,55.85
2022-11-20T04:32:03.982Z,58.38
2022-11-20T04:34:31.442Z,59.72
2022-11-20T04:36:58.845Z,55.72
2022-11-20T04:39:29.122Z,52.80
2022-11-20T04:42:15.051Z,57.70
2022-11-20T04:44:42.476Z,53.45
2022-11-20T04:47:09.933Z,50.15
2022-11-20T04:49:37.492Z,49.83
2022-11-20T04:52:04.957Z,57.92
2022-11-20T04:54:32.483Z,57.00
2022-11-20T04:57:00.047Z,51.45
2022-11-20T04:59:27.484Z,55.88
2022-11-20T05:01:57.729Z,52.85
2022-11-20T05:04:25.179Z,52.20
2022-11-20T05:06:52.696Z,53.95
2022-11-20T05:09:20.482Z,51.53
2022-11-20T05:11:54.424Z,53.92
2022-11-20T05:14:21.885Z,50.72
2022-11-20T05:16:49.808Z,47.70
2022-11-20T05:19:17.252Z,50.22
2022-11-20T05:21:44.627Z,47.80
2022-11-20T05:24:12.050Z,47.45
2022-11-20T05:26:39.424Z,44.28
2022-11-20T05:29:06.836Z,44.30
2022-11-20T05:31:34.223Z,39.15
2022-11-20T05:34:01.712Z,45.42
2022-11-20T05:36:29.125Z,42.58
2022-11-20T05:39:01.195Z,39.97
2022-11-20T05:41:29.632Z,34.33
2022-11-20T05:43:58.235Z,36.95
2022-11-20T05:46:28.717Z,34.03
2022-11-20T05:48:57.177Z,36.83
2022-11-20T05:51:24.562Z,33.72
2022-11-20T05:53:52.201Z,28.70
2022-11-20T05:56:20.866Z,27.48
2022-11-20T05:58:48.771Z,25.77
2022-11-20T06:01:17.668Z,24.55
2022-11-20T06:03:47.090Z,25.08
2022-11-20T06:06:15.306Z,24.27
2022-11-20T06:08:43.115Z,22.60
2022-11-20T06:11:11.687Z,21.63
2022-11-20T06:13:42.301Z,25.05
2022-11-20T06:16:10.571Z,24.48
2022-11-20T06:18:38.234Z,23.98
2022-11-20T06:21:16.747Z,20.40
2022-11-20T06:23:46.301Z,23.98
2022-11-20T06:26:18.156Z,18.88
2022-11-20T06:28:45.661Z,20.77
2022-11-20T06:31:14.786Z,18.73
2022-11-20T06:33:42.556Z,16.25
2022-11-20T06:36:11.830Z,16.10
2022-11-20T06:38:39.936Z,13.50
2022-11-20T06:41:08.321Z,16.00
2022-11-20T06:43:35.789Z,15.68
2022-11-20T06:46:03.375Z,14.25
2022-11-20T06:48:30.921Z,15.25
2022-11-20T06:50:58.681Z,11.90
2022-11-20T06:53:26.408Z,12.65
2022-11-20T06:55:54.394Z,12.20
2022-11-20T06:58:21.852Z,12.85
2022-11-20T07:00:49.276Z,13.20
2022-11-20T07:03:16.724Z,11.55
2022-11-20T07:05:44.772Z,13.32
2022-11-20T07:08:12.256Z,13.82
2022-11-20T07:10:39.638Z,12.90
2022-11-20T07:13:07.973Z,13.35
2022-11-20T07:15:35.437Z,25.52
2022-11-20T07:18:03.179Z,31.02
2022-11-20T07:20:30.778Z,32.42
2022-11-20T07:22:58.952Z,22.80
2022-11-20T07:25:27.074Z,23.08
2022-11-20T07:27:54.610Z,21.42
2022-11-20T07:30:22.003Z,16.80
2022-11-20T07:32:49.866Z,20.33
2022-11-20T07:35:17.271Z,19.42
2022-11-20T07:37:46.652Z,21.65
2022-11-20T07:40:14.733Z,21.27
2022-11-20T07:42:49.272Z,21.38
2022-11-20T07:45:16.765Z,19.27
2022-11-20T07:47:44.143Z,20.23
2022-11-20T07:50:11.997Z,20.48
2022-11-20T07:52:39.571Z,24.45
2022-11-20T07:55:07.279Z,24.90
2022-11-20T07:57:34.680Z,25.70
2022-11-20T08:00:02.126Z,23.73
2022-11-20T08:02:42.811Z,22.65
2022-11-20T08:05:11.152Z,25.23
2022-11-20T08:07:39.828Z,21.92
2022-11-20T08:10:08.083Z,22.88
2022-11-20T08:12:53.858Z,21.60
2022-11-20T08:15:21.367Z,24.80
2022-11-20T08:18:08.349Z,21.85
2022-11-20T08:20:36.673Z,21.75
2022-11-20T08:23:06.365Z,22.58
2022-11-20T08:25:34.994Z,22.80
2022-11-20T08:28:11.587Z,25.35
2022-11-20T08:30:46.977Z,22.50
2022-11-20T08:33:14.526Z,28.35
2022-11-20T08:35:43.375Z,24.63
2022-11-20T08:38:11.535Z,28.63
2022-11-20T08:40:39.187Z,26.10
2022-11-20T08:43:06.538Z,26.13
2022-11-20T08:45:35.288Z,26.63
2022-11-20T08:48:04.030Z,29.92
2022-11-20T08:50:33.372Z,28.38
2022-11-20T08:53:07.194Z,26.02
2022-11-20T08:55:36.561Z,28.55
2022-11-20T08:58:08.164Z,30.73
2022-11-20T09:00:36.106Z,29.48
2022-11-20T09:03:03.812Z,29.60
2022-11-20T09:05:31.265Z,30.25
2022-11-20T09:07:59.349Z,28.48
2022-11-20T09:10:27.375Z,33.05
2022-11-20T09:12:56.127Z,31.88
2022-11-20T09:15:24.145Z,29.30
2022-11-20T09:17:59.230Z,32.22
2022-11-20T09:22:54.135Z,34.10
2022-11-20T09:25:21.744Z,35.42
2022-11-20T09:27:49.281Z,39.13
2022-11-20T09:30:17.157Z,30.48
2022-11-20T09:32:45.792Z,33.83
2022-11-20T09:35:13.246Z,39.78
2022-11-20T09:37:40.656Z,38.58
2022-11-20T09:40:08.757Z,37.58
2022-11-20T09:42:39.115Z,41.15
2022-11-20T09:45:36.024Z,36.30
2022-11-20T09:48:10.197Z,37.10
2022-11-20T09:50:48.962Z,40.78
2022-11-20T09:53:22.560Z,42.15
2022-11-20T09:55:50.647Z,43.60
2022-11-20T09:58:24.372Z,46.30
2022-11-20T10:00:53.099Z,46.90
2022-11-20T10:03:24.633Z,43.20
2022-11-20T10:05:56.205Z,46.17
2022-11-20T10:08:25.860Z,46.95
2022-11-20T10:11:05.713Z,40.55
2022-11-20T10:13:45.385Z,47.90
2022-11-20T10:16:12.934Z,38.00
2022-11-20T10:18:40.394Z,46.70
2022-11-20T10:21:14.199Z,40.75
2022-11-20T10:23:41.681Z,51.42
2022-11-20T10:26:19.509Z,46.97
2022-11-20T10:29:18.975Z,45.58
2022-11-20T10:31:48.044Z,49.72
2022-11-20T10:34:27.478Z,55.38
2022-11-20T10:36:57.798Z,60.95
2022-11-20T10:39:37.257Z,60.42
2022-11-20T10:42:07.009Z,57.60
2022-11-20T10:44:56.717Z,54.00
2022-11-20T10:47:24.543Z,49.33
2022-11-20T10:49:54.770Z,51.67
2022-11-20T10:52:22.170Z,47.75
2022-11-20T10:54:53.576Z,47.45
2022-11-20T10:57:34.669Z,52.90
2022-11-20T11:00:07.037Z,58.28
2022-11-20T11:02:36.914Z,53.05
2022-11-20T11:05:14.524Z,59.45
2022-11-20T11:07:42.402Z,50.65
2022-11-20T11:10:15.960Z,59.47
2022-11-20T11:12:45.693Z,53.17
2022-11-20T11:15:16.423Z,52.38
2022-11-20T11:17:50.165Z,60.03
2022-11-20T11:20:22.221Z,55.72
2022-11-20T11:22:49.754Z,53.03
2022-11-20T11:25:36.281Z,44.50
2022-11-20T11:28:21.000Z,46.75
2022-11-20T11:30:51.692Z,38.30
2022-11-20T11:33:23.669Z,43.20
2022-11-20T11:35:53.810Z,42.67
2022-11-20T11:38:24.794Z,46.83
2022-11-20T11:40:55.702Z,40.85
2022-11-20T11:43:53.501Z,43.45
2022-11-20T11:46:23.987Z,40.63
2022-11-20T11:49:24.234Z,42.40
2022-11-20T11:51:57.897Z,39.00
2022-11-20T11:54:38.760Z,37.38
2022-11-20T11:57:32.223Z,36.80
2022-11-20T12:00:03.073Z,41.38
2022-11-20T12:02:50.898Z,38.90
2022-11-20T12:05:18.353Z,40.58
2022-11-20T12:07:50.040Z,42.63
2022-11-20T12:10:20.526Z,77.30
2022-11-20T12:12:50.369Z,52.58
2022-11-20T12:15:25.625Z,39.90
2022-11-20T12:17:53.110Z,38.38
2022-11-20T12:20:21.735Z,59.05
2022-11-20T12:22:55.290Z,55.03
2022-11-20T12:25:28.892Z,49.45
2022-11-20T12:27:56.266Z,46.55
2022-11-20T12:30:25.714Z,41.15
2022-11-20T12:33:08.424Z,48.97
2022-11-20T12:35:54.735Z,58.15
2022-11-20T12:38:41.038Z,42.50
2022-11-20T12:41:55.872Z,39.55
2022-11-20T12:44:44.961Z,40.75
2022-11-20T12:47:30.892Z,38.70
2022-11-20T12:50:02.631Z,53.40
2022-11-20T12:53:02.339Z,45.33
2022-11-20T12:55:35.963Z,52.95
2022-11-20T12:58:21.826Z,37.55
2022-11-20T13:00:56.942Z,38.17
2022-11-20T13:03:34.717Z,34.50
2022-11-20T13:06:17.713Z,39.25
2022-11-20T13:08:50.233Z,42.33
2022-11-20T13:11:29.930Z,49.60
2022-11-20T13:14:00.050Z,37.13
2022-11-20T13:16:47.738Z,47.17
2022-11-20T13:19:17.569Z,44.40
2022-11-20T13:21:47.492Z,38.55
2022-11-20T13:24:21.296Z,37.38
2022-11-20T13:26:48.973Z,37.33
2022-11-20T13:29:20.171Z,37.75
2022-11-20T13:31:48.886Z,37.50
2022-11-20T13:34:26.900Z,47.38
2022-11-20T13:36:58.151Z,68.18
2022-11-20T13:39:26.817Z,52.05
2022-11-20T13:41:58.366Z,68.18
2022-11-20T13:44:29.040Z,69.95
2022-11-20T13:46:56.601Z,169.98
2022-11-20T13:49:44.870Z,67.75
2022-11-20T13:52:24.868Z,56.85
2022-11-20T13:55:11.105Z,70.25
2022-11-20T13:58:04.667Z,74.85
2022-11-20T14:00:32.169Z,73.38
2022-11-20T14:03:02.679Z,72.68
2022-11-20T14:05:33.433Z,44.08
2022-11-20T14:08:01.041Z,45.38
2022-11-20T14:10:32.178Z,69.30
2022-11-20T14:13:00.662Z,60.85
2022-11-20T14:15:32.465Z,43.90
2022-11-20T14:18:00.570Z,36.10
2022-11-20T14:20:29.263Z,41.15
2022-11-20T14:22:57.343Z,37.50
2022-11-20T14:25:28.167Z,52.78
2022-11-20T14:27:57.128Z,57.10
2022-11-20T14:30:29.900Z,52.08
2022-11-20T14:33:03.925Z,49.45
2022-11-20T14:35:33.177Z,46.60
2022-11-20T14:38:00.964Z,39.95
2022-11-20T14:40:30.410Z,39.38
2022-11-20T14:42:58.513Z,40.75
2022-11-20T14:45:26.838Z,40.65
2022-11-20T14:47:55.370Z,37.17
2022-11-20T14:50:25.375Z,38.42
2022-11-20T14:52:53.660Z,32.95
2022-11-20T14:55:28.367Z,37.92
2022-11-20T14:58:00.718Z,38.53
2022-11-20T15:00:28.622Z,77.63
2022-11-20T15:02:56.359Z,74.43
2022-11-20T15:05:25.277Z,64.45
2022-11-20T15:07:54.439Z,75.97
2022-11-20T15:10:25.909Z,165.82
2022-11-20T15:13:16.351Z,128.55
2022-11-20T15:15:55.861Z,81.72
2022-11-20T15:18:25.358Z,66.65
2022-11-20T15:20:53.110Z,48.25
2022-11-20T15:23:21.496Z,48.08
2022-11-20T15:25:49.558Z,44.28
2022-11-20T15:28:43.948Z,57.95
2022-11-20T15:31:13.670Z,105.45
2022-11-20T15:33:41.067Z,71.88
2022-11-20T15:36:08.503Z,58.50
2022-11-20T15:38:35.901Z,87.85
2022-11-20T15:41:04.980Z,65.47
2022-11-20T15:43:32.439Z,44.25
2022-11-20T15:46:04.782Z,45.10
2022-11-20T15:48:34.219Z,33.60
2022-11-20T15:51:04.349Z,38.67
2022-11-20T15:53:32.022Z,32.85
2022-11-20T15:55:59.373Z,59.65
2022-11-20T15:58:27.662Z,51.70
2022-11-20T16:00:56.096Z,51.85
2022-11-20T16:03:23.762Z,34.42
2022-11-20T16:05:51.106Z,37.47
2022-11-20T16:08:18.567Z,35.30
2022-11-20T16:10:46.048Z,36.53
2022-11-20T16:13:33.124Z,45.22
2022-11-20T16:16:01.494Z,54.35
2022-11-20T16:18:28.916Z,43.42
2022-11-20T16:20:56.678Z,45.00
2022-11-20T16:23:24.271Z,39.28
2022-11-20T16:25:52.723Z,40.15
2022-11-20T16:28:20.589Z,37.40
2022-11-20T16:30:48.245Z,36.03
2022-11-20T16:33:17.997Z,37.60
2022-11-20T16:35:45.474Z,39.13
2022-11-20T16:38:12.895Z,41.60
2022-11-20T16:40:40.863Z,45.22
2022-11-20T16:43:10.639Z,49.40
2022-11-20T16:45:45.195Z,49.63
2022-11-20T16:48:16.633Z,42.60
2022-11-20T16:51:01.977Z,53.67
2022-11-20T16:53:29.462Z,46.17
2022-11-20T16:55:56.810Z,48.97
2022-11-20T16:58:24.400Z,49.92
2022-11-20T17:00:52.143Z,55.70
2022-11-20T17:03:21.084Z,50.40
2022-11-20T17:05:48.562Z,49.75
2022-11-20T17:08:16.001Z,46.92
2022-11-20T17:10:43.341Z,48.70
2022-11-20T17:13:11.225Z,41.50
2022-11-20T17:15:38.577Z,42.65
2022-11-20T17:18:06.642Z,40.92
2022-11-20T17:20:34.002Z,37.10
2022-11-20T17:23:01.420Z,34.78
2022-11-20T17:25:28.781Z,39.28
2022-11-20T17:27:56.294Z,39.00
2022-11-20T17:30:23.642Z,35.72
2022-11-20T17:32:51.057Z,38.03
2022-11-20T17:35:18.440Z,39.28
2022-11-20T17:37:45.835Z,41.63
2022-11-20T17:40:13.432Z,42.63
2022-11-20T17:42:40.855Z,39.95
2022-11-20T17:45:08.285Z,46.75
2022-11-20T17:47:39.225Z,47.42
2022-11-20T17:50:07.077Z,44.10
2022-11-20T17:52:34.493Z,42.33
2022-11-20T17:55:02.050Z,53.28
2022-11-20T17:57:48.025Z,60.10
2022-11-20T18:00:17.219Z,50.60
2022-11-20T18:02:45.087Z,44.30
2022-11-20T18:05:12.658Z,43.10
2022-11-20T18:07:41.908Z,39.45
2022-11-20T18:10:10.106Z,41.53
2022-11-20T18:12:38.524Z,33.47
2022-11-20T18:15:06.067Z,33.42
2022-11-20T18:17:33.558Z,36.80
2022-11-20T18:20:28.035Z,32.72
2022-11-20T18:22:48.576Z,31.13
2022-11-20T18:25:15.988Z,33.15
2022-11-20T18:27:43.536Z,55.83
2022-11-20T18:30:11.332Z,84.22
2022-11-20T18:32:41.005Z,46.78
2022-11-20T18:35:08.710Z,45.33
2022-11-20T18:37:36.138Z,36.63
2022-11-20T18:40:03.880Z,38.08
2022-11-20T18:42:49.735Z,21.52
2022-11-20T18:45:17.238Z,22.00
2022-11-20T18:47:44.898Z,20.50
2022-11-20T18:50:12.339Z,19.75
2022-11-20T18:52:47.902Z,21.02
2022-11-20T18:55:18.976Z,21.83
2022-11-20T18:57:46.948Z,21.27
2022-11-20T19:00:14.505Z,20.60
2022-11-20T19:02:43.217Z,21.55
2022-11-20T19:05:11.766Z,21.13
2022-11-20T19:07:40.088Z,18.27
2022-11-20T19:10:08.057Z,19.45
2022-11-20T19:12:35.999Z,21.40
2022-11-20T19:15:04.276Z,18.98
2022-11-20T19:17:31.890Z,18.88
2022-11-20T19:20:00.273Z,21.77
2022-11-20T19:22:28.123Z,21.83
2022-11-20T19:24:55.574Z,22.58
2022-11-20T19:27:22.962Z,21.98
2022-11-20T19:29:50.686Z,27.88
2022-11-20T19:32:18.107Z,28.70
2022-11-20T19:34:45.606Z,59.15
2022-11-20T19:37:13.182Z,43.22
2022-11-20T19:39:40.747Z,48.47
2022-11-20T19:42:10.820Z,31.42
2022-11-20T19:44:38.331Z,24.38
2022-11-20T19:47:10.237Z,20.20
2022-11-20T19:49:41.819Z,16.88
2022-11-20T19:52:09.471Z,20.35
2022-11-20T19:54:36.983Z,17.02
2022-11-20T19:57:04.412Z,17.65
2022-11-20T19:59:31.826Z,18.73
2022-11-20T20:01:59.280Z,22.88
2022-11-20T20:04:26.784Z,30.65
2022-11-20T20:06:54.151Z,24.95
2022-11-20T20:09:23.842Z,25.15
2022-11-20T20:11:51.495Z,23.23
2022-11-20T20:14:19.283Z,20.42
2022-11-20T20:16:46.812Z,16.25
2022-11-20T20:19:15.123Z,17.52
2022-11-20T20:21:42.627Z,23.00
2022-11-20T20:24:11.035Z,16.90
2022-11-20T20:26:38.841Z,20.35
2022-11-20T20:29:06.231Z,20.83
2022-11-20T20:31:34.055Z,20.55
2022-11-20T20:34:03.392Z,18.67
2022-11-20T20:36:33.216Z,17.77
2022-11-20T20:39:02.711Z,19.00
2022-11-20T20:41:31.526Z,21.25
2022-11-20T20:44:17.912Z,18.20
2022-11-20T20:46:45.371Z,21.60
2022-11-20T20:49:12.760Z,20.73
2022-11-20T20:51:40.206Z,20.27
2022-11-20T20:54:08.087Z,18.60
2022-11-20T20:56:35.565Z,21.35
2022-11-20T20:59:04.216Z,20.08
2022-11-20T21:01:31.721Z,16.90
2022-11-20T21:03:59.156Z,18.77
2022-11-20T21:06:26.944Z,21.30
2022-11-20T21:08:55.971Z,18.70
2022-11-20T21:11:23.492Z,18.77
2022-11-20T21:13:50.951Z,20.50
2022-11-20T21:16:19.343Z,21.42
2022-11-20T21:18:46.782Z,18.38
2022-11-20T21:21:33.423Z,20.02
2022-11-20T21:24:00.826Z,19.30
2022-11-20T21:26:28.247Z,21.80
2022-11-20T21:28:57.077Z,22.50
2022-11-20T21:31:26.509Z,20.13
2022-11-20T21:33:55.422Z,19.30
2022-11-20T21:36:23.994Z,18.90
2022-11-20T21:38:52.046Z,20.80
2022-11-20T21:41:19.880Z,25.00
2022-11-20T21:44:09.148Z,17.45
2022-11-20T21:46:38.527Z,16.88
2022-11-20T21:49:06.099Z,18.85
2022-11-20T21:51:33.487Z,19.40
2022-11-20T21:54:00.915Z,19.73
2022-11-20T21:56:28.747Z,21.98
2022-11-20T21:58:56.364Z,21.65
2022-11-20T22:01:30.767Z,19.65
2022-11-20T22:04:02.144Z,19.35
2022-11-20T22:06:33.707Z,19.77
2022-11-20T22:09:02.208Z,22.90
2022-11-20T22:11:29.647Z,21.55
2022-11-20T22:14:15.936Z,21.27
2022-11-20T22:16:43.430Z,27.15
2022-11-20T22:19:10.816Z,25.30
2022-11-20T22:21:40.022Z,28.95
2022-11-20T22:24:07.467Z,28.80
2022-11-20T22:26:40.540Z,30.25
2022-11-20T22:29:09.042Z,34.45
2022-11-20T22:31:36.464Z,37.30
2022-11-20T22:34:04.154Z,30.63
2022-11-20T22:36:32.241Z,32.42
2022-11-20T22:38:59.722Z,34.78
2022-11-20T22:41:28.267Z,36.03
2022-11-20T22:43:56.629Z,36.50
2022-11-20T22:46:24.301Z,34.97
2022-11-20T22:48:53.328Z,40.75
2022-11-20T22:51:22.085Z,40.20
2022-11-20T22:53:49.645Z,40.05
2022-11-20T22:56:17.808Z,39.30
2022-11-20T22:58:46.462Z,38.20
2022-11-20T23:01:16.688Z,37.53
2022-11-20T23:03:45.526Z,39.22
2022-11-20T23:06:13.786Z,40.80
2022-11-20T23:08:42.057Z,42.75
2022-11-20T23:11:14.200Z,39.25
2022-11-20T23:13:42.128Z,37.83
2022-11-20T23:16:22.399Z,37.58
2022-11-20T23:18:54.648Z,38.17
2022-11-20T23:21:22.102Z,39.17
2022-11-20T23:23:50.594Z,34.20
2022-11-20T23:26:19.008Z,38.08
2022-11-20T23:28:46.780Z,40.08
2022-11-20T23:31:14.804Z,44.50
2022-11-20T23:33:44.255Z,37.00
2022-11-20T23:36:12.106Z,40.10
2022-11-20T23:38:39.450Z,35.78
2022-11-20T23:41:07.227Z,38.55
2022-11-20T23:43:34.898Z,36.00
2022-11-20T23:46:03.007Z,31.25
2022-11-20T23:48:31.518Z,34.65
2022-11-20T23:50:59.186Z,36.60
2022-11-20T23:53:27.194Z,34.83
2022-11-20T23:55:55.746Z,32.05
2022-11-20T23:58:23.923Z,29.70
